createdAt,value
2022-10-20T00:01:11.432Z,11.30
2022-10-20T00:03:39.010Z,11.30
2022-10-20T00:06:12.003Z,11.30
2022-10-20T00:08:40.474Z,11.40
2022-10-20T00:11:09.998Z,11.40
2022-10-20T00:13:38.215Z,11.40
2022-10-20T00:16:05.727Z,11.40
2022-10-20T00:18:33.227Z,11.40
2022-10-20T00:21:00.394Z,11.50
2022-10-20T00:23:27.553Z,11.40
2022-10-20T00:26:05.160Z,11.40
2022-10-20T00:28:32.459Z,11.40
2022-10-20T00:30:59.621Z,11.40
2022-10-20T00:33:26.765Z,11.40
2022-10-20T00:35:53.897Z,11.50
2022-10-20T00:38:21.067Z,11.50
2022-10-20T00:40:48.231Z,11.40
2022-10-20T00:43:17.138Z,11.40
2022-10-20T00:45:51.331Z,11.40
2022-10-20T00:48:22.442Z,11.40
2022-10-20T00:50:52.699Z,11.30
2022-10-20T00:53:22.566Z,11.30
2022-10-20T00:55:52.005Z,11.30
2022-10-20T00:58:19.719Z,11.30
2022-10-20T01:00:50.849Z,11.20
2022-10-20T01:03:23.819Z,11.20
2022-10-20T01:05:51.097Z,11.10
2022-10-20T01:08:18.254Z,11.20
2022-10-20T01:10:57.867Z,11.10
2022-10-20T01:13:43.974Z,11.10
2022-10-20T01:16:36.096Z,11.10
2022-10-20T01:19:33.765Z,11.10
2022-10-20T01:22:34.875Z,11.00
2022-10-20T01:25:39.924Z,11.00
2022-10-20T01:28:09.577Z,11.00
2022-10-20T01:30:44.882Z,11.00
2022-10-20T01:36:11.026Z,11.00
2022-10-20T01:38:40.771Z,10.90
2022-10-20T01:41:26.154Z,10.90
2022-10-20T01:43:54.377Z,10.90
2022-10-20T01:46:24.161Z,10.90
2022-10-20T01:48:51.398Z,10.90
2022-10-20T01:51:18.534Z,10.90
2022-10-20T01:53:45.759Z,10.90
2022-10-20T01:56:19.815Z,10.90
2022-10-20T01:58:53.149Z,10.90
2022-10-20T02:01:40.273Z,10.90
2022-10-20T02:04:08.653Z,10.90
2022-10-20T02:07:02.539Z,11.00
2022-10-20T02:09:44.138Z,11.00
2022-10-20T02:12:19.386Z,11.00
2022-10-20T02:14:47.809Z,11.00
2022-10-20T02:17:17.722Z,11.00
2022-10-20T02:19:48.458Z,11.00
2022-10-20T02:22:16.614Z,11.00
2022-10-20T02:24:44.751Z,10.90
2022-10-20T02:27:32.391Z,10.90
2022-10-20T02:30:02.114Z,10.90
2022-10-20T02:32:31.818Z,11.00
2022-10-20T02:35:02.292Z,11.00
2022-10-20T02:37:32.316Z,11.00
2022-10-20T02:39:59.585Z,11.00
2022-10-20T02:42:26.742Z,10.90
2022-10-20T02:44:55.599Z,10.90
2022-10-20T02:47:22.746Z,10.90
2022-10-20T02:49:49.916Z,10.90
2022-10-20T02:52:17.047Z,10.90
2022-10-20T02:54:44.139Z,10.90
2022-10-20T02:57:11.283Z,10.90
2022-10-20T02:59:38.406Z,10.80
2022-10-20T03:02:05.616Z,10.80
2022-10-20T03:04:32.832Z,10.80
2022-10-20T03:06:59.939Z,10.90
2022-10-20T03:09:27.249Z,10.80
2022-10-20T03:11:54.468Z,10.80
2022-10-20T03:14:21.645Z,10.80
2022-10-20T03:16:48.756Z,10.80
2022-10-20T03:19:15.906Z,10.80
2022-10-20T03:21:43.022Z,10.80
2022-10-20T03:24:10.148Z,10.70
2022-10-20T03:26:37.318Z,10.70
2022-10-20T03:29:04.753Z,10.70
2022-10-20T03:31:31.938Z,10.70
2022-10-20T03:33:59.117Z,10.70
2022-10-20T03:36:26.298Z,10.80
2022-10-20T03:38:53.461Z,10.70
2022-10-20T03:41:20.620Z,10.70
2022-10-20T03:43:47.782Z,10.70
2022-10-20T03:46:14.952Z,10.80
2022-10-20T03:48:42.231Z,10.70
2022-10-20T03:51:11.793Z,10.70
2022-10-20T03:53:38.974Z,10.70
2022-10-20T03:56:07.692Z,10.80
2022-10-20T03:58:35.234Z,10.70
2022-10-20T04:01:03.452Z,10.80
2022-10-20T04:03:30.592Z,10.80
2022-10-20T04:05:57.706Z,10.70
2022-10-20T04:08:25.006Z,10.70
2022-10-20T04:10:52.270Z,10.70
2022-10-20T04:13:19.426Z,10.80
2022-10-20T04:15:46.581Z,10.80
2022-10-20T04:18:13.792Z,10.80
2022-10-20T04:20:43.657Z,10.80
2022-10-20T04:23:12.350Z,10.80
2022-10-20T04:25:48.362Z,10.80
2022-10-20T04:28:17.790Z,10.80
2022-10-20T04:30:45.423Z,10.90
2022-10-20T04:33:13.150Z,10.90
2022-10-20T04:35:40.945Z,10.90
2022-10-20T04:38:08.116Z,10.90
2022-10-20T04:40:35.256Z,10.90
2022-10-20T04:43:02.627Z,11.00
2022-10-20T04:45:29.856Z,11.00
2022-10-20T04:47:56.958Z,11.00
2022-10-20T04:50:24.104Z,10.90
2022-10-20T04:53:07.750Z,10.90
2022-10-20T04:55:36.074Z,10.90
2022-10-20T04:58:03.904Z,10.90
2022-10-20T05:00:34.403Z,10.90
2022-10-20T05:03:01.601Z,10.90
2022-10-20T05:05:28.762Z,10.90
2022-10-20T05:07:55.910Z,10.90
2022-10-20T05:10:23.038Z,11.00
2022-10-20T05:12:50.126Z,11.00
2022-10-20T05:15:17.323Z,11.00
2022-10-20T05:17:44.433Z,11.00
2022-10-20T05:20:11.598Z,11.00
2022-10-20T05:22:38.968Z,11.00
2022-10-20T05:25:34.993Z,11.00
2022-10-20T05:27:53.855Z,11.00
2022-10-20T05:30:20.948Z,11.00
2022-10-20T05:32:48.151Z,11.00
2022-10-20T05:35:15.317Z,11.00
2022-10-20T05:37:42.498Z,11.00
2022-10-20T05:40:10.228Z,11.00
2022-10-20T05:42:37.730Z,11.00
2022-10-20T05:45:06.352Z,11.00
2022-10-20T05:47:34.218Z,11.00
2022-10-20T05:50:01.402Z,11.00
2022-10-20T05:52:28.543Z,11.10
2022-10-20T05:54:55.721Z,11.00
2022-10-20T05:57:23.072Z,11.00
2022-10-20T05:59:50.191Z,11.00
2022-10-20T06:02:17.320Z,11.00
2022-10-20T06:04:44.516Z,11.00
2022-10-20T06:07:11.758Z,11.10
2022-10-20T06:09:39.702Z,11.10
2022-10-20T06:14:35.661Z,11.20
2022-10-20T06:17:03.751Z,11.20
2022-10-20T06:19:30.927Z,11.20
2022-10-20T06:22:01.221Z,11.20
2022-10-20T06:24:31.361Z,11.30
2022-10-20T06:26:58.475Z,11.30
2022-10-20T06:29:25.639Z,11.40
2022-10-20T06:31:56.143Z,11.40
2022-10-20T06:34:24.982Z,11.40
2022-10-20T06:36:52.674Z,11.50
2022-10-20T06:39:22.336Z,11.50
2022-10-20T06:41:51.255Z,11.60
2022-10-20T06:44:23.202Z,11.60
2022-10-20T06:46:54.610Z,11.60
2022-10-20T06:49:22.086Z,11.60
2022-10-20T06:51:49.437Z,11.70
2022-10-20T06:54:16.750Z,11.70
2022-10-20T06:56:43.911Z,11.70
2022-10-20T06:59:11.299Z,11.70
2022-10-20T07:01:39.611Z,11.80
2022-10-20T07:04:10.561Z,11.80
2022-10-20T07:06:40.228Z,11.80
2022-10-20T07:09:11.826Z,11.90
2022-10-20T07:11:39.403Z,11.90
2022-10-20T07:14:06.661Z,12.00
2022-10-20T07:16:34.934Z,12.00
2022-10-20T07:19:04.165Z,12.10
2022-10-20T07:21:35.823Z,12.10
2022-10-20T07:24:07.179Z,12.20
2022-10-20T07:26:37.833Z,12.20
2022-10-20T07:29:05.446Z,12.40
2022-10-20T07:31:39.076Z,12.40
2022-10-20T07:34:23.820Z,12.40
2022-10-20T07:36:53.187Z,12.50
2022-10-20T07:39:20.342Z,12.50
2022-10-20T07:41:48.252Z,12.60
2022-10-20T07:44:16.536Z,12.70
2022-10-20T07:46:44.095Z,12.80
2022-10-20T07:51:58.464Z,12.80
2022-10-20T07:54:25.654Z,12.90
2022-10-20T07:56:53.043Z,12.90
2022-10-20T07:59:20.289Z,13.00
2022-10-20T08:01:47.543Z,13.10
2022-10-20T08:04:14.858Z,13.10
2022-10-20T08:06:41.988Z,13.20
2022-10-20T08:09:09.209Z,13.10
2022-10-20T08:11:36.394Z,13.10
2022-10-20T08:14:03.861Z,13.10
2022-10-20T08:21:56.203Z,13.30
2022-10-20T08:24:23.402Z,13.40
2022-10-20T08:26:50.527Z,13.40
2022-10-20T08:29:17.689Z,13.50
2022-10-20T08:31:45.102Z,13.60
2022-10-20T08:34:12.220Z,13.70
2022-10-20T08:36:39.498Z,13.80
2022-10-20T08:39:06.712Z,13.90
2022-10-20T08:42:02.589Z,13.80
2022-10-20T08:44:32.419Z,13.80
2022-10-20T08:47:05.503Z,13.90
2022-10-20T08:49:34.933Z,13.80
2022-10-20T08:52:02.952Z,13.90
2022-10-20T08:54:33.891Z,13.80
2022-10-20T08:57:01.090Z,13.90
2022-10-20T08:59:33.308Z,14.00
2022-10-20T09:02:02.005Z,14.10
2022-10-20T09:04:58.439Z,14.30
2022-10-20T09:07:32.441Z,14.40
2022-10-20T09:10:24.373Z,14.50
2022-10-20T09:12:52.240Z,14.50
2022-10-20T09:15:21.249Z,14.70
2022-10-20T09:18:06.462Z,14.80
2022-10-20T09:20:40.310Z,14.70
2022-10-20T09:23:39.265Z,14.70
2022-10-20T09:26:19.685Z,14.80
2022-10-20T09:29:13.019Z,14.80
2022-10-20T09:31:46.983Z,14.80
2022-10-20T09:34:34.440Z,14.70
2022-10-20T09:37:12.730Z,14.70
2022-10-20T09:39:55.381Z,14.70
2022-10-20T09:42:28.897Z,14.70
2022-10-20T09:45:04.230Z,14.70
2022-10-20T09:47:33.852Z,14.80
2022-10-20T09:50:04.186Z,14.80
2022-10-20T09:52:35.323Z,14.80
2022-10-20T09:55:24.026Z,14.80
2022-10-20T09:57:51.525Z,14.80
2022-10-20T10:00:37.120Z,14.90
2022-10-20T10:03:22.384Z,14.90
2022-10-20T10:06:00.530Z,14.90
2022-10-20T10:08:40.667Z,15.00
2022-10-20T10:11:19.344Z,15.00
2022-10-20T10:13:49.673Z,15.10
2022-10-20T10:16:22.078Z,15.10
2022-10-20T10:19:17.839Z,15.00
2022-10-20T10:21:54.062Z,14.90
2022-10-20T10:24:36.519Z,14.90
2022-10-20T10:27:04.118Z,14.90
2022-10-20T10:29:36.228Z,14.90
2022-10-20T10:32:23.571Z,15.00
2022-10-20T10:35:10.639Z,15.00
2022-10-20T10:37:42.131Z,15.10
2022-10-20T10:40:24.251Z,15.20
2022-10-20T10:43:17.410Z,15.20
2022-10-20T10:45:51.492Z,15.20
2022-10-20T10:48:21.375Z,15.10
2022-10-20T10:50:58.788Z,15.10
2022-10-20T10:53:31.706Z,15.10
2022-10-20T10:56:23.218Z,15.00
2022-10-20T10:59:13.963Z,15.00
2022-10-20T11:01:47.935Z,14.70
2022-10-20T11:04:18.457Z,14.60
2022-10-20T11:07:01.054Z,14.40
2022-10-20T11:09:38.191Z,14.50
2022-10-20T11:12:37.597Z,14.40
2022-10-20T11:15:29.622Z,14.40
2022-10-20T11:18:06.229Z,14.30
2022-10-20T11:20:48.244Z,14.30
2022-10-20T11:23:27.183Z,14.40
2022-10-20T11:26:28.950Z,14.40
2022-10-20T11:28:58.295Z,14.40
2022-10-20T11:31:34.262Z,14.40
2022-10-20T11:34:16.849Z,14.30
2022-10-20T11:36:55.035Z,14.30
2022-10-20T11:39:28.156Z,14.30
2022-10-20T11:42:00.895Z,14.30
2022-10-20T11:44:36.916Z,14.30
2022-10-20T11:47:10.921Z,14.40
2022-10-20T11:49:40.298Z,14.40
2022-10-20T11:52:13.374Z,14.50
2022-10-20T11:55:13.017Z,14.50
2022-10-20T11:58:19.323Z,14.50
2022-10-20T12:01:23.598Z,14.50
2022-10-20T12:04:15.381Z,14.60
2022-10-20T12:07:20.974Z,14.60
2022-10-20T12:10:13.210Z,14.70
2022-10-20T12:12:58.987Z,14.80
2022-10-20T12:15:27.916Z,14.80
2022-10-20T12:18:03.797Z,15.10
2022-10-20T12:20:30.894Z,15.30
2022-10-20T12:23:02.593Z,15.30
2022-10-20T12:25:29.763Z,15.40
2022-10-20T12:28:24.984Z,15.50
2022-10-20T12:31:03.953Z,15.50
2022-10-20T12:33:40.133Z,15.40
2022-10-20T12:36:13.928Z,15.30
2022-10-20T12:38:42.896Z,15.40
2022-10-20T12:41:24.148Z,15.30
2022-10-20T12:43:53.909Z,15.20
2022-10-20T12:46:31.328Z,15.20
2022-10-20T12:49:09.455Z,15.10
2022-10-20T12:51:48.781Z,15.10
2022-10-20T12:54:42.741Z,15.00
2022-10-20T12:57:41.544Z,14.90
2022-10-20T13:00:23.611Z,14.80
2022-10-20T13:02:52.196Z,14.80
2022-10-20T13:05:19.326Z,14.80
2022-10-20T13:07:46.505Z,14.70
2022-10-20T13:10:37.346Z,14.80
2022-10-20T13:13:04.448Z,14.90
2022-10-20T13:15:31.609Z,15.00
2022-10-20T13:18:12.965Z,15.10
2022-10-20T13:20:46.537Z,15.10
2022-10-20T13:23:15.778Z,15.10
2022-10-20T13:25:55.197Z,15.10
2022-10-20T13:28:31.514Z,15.10
2022-10-20T13:31:13.409Z,15.00
2022-10-20T13:34:18.239Z,15.00
2022-10-20T13:36:58.554Z,15.10
2022-10-20T13:40:04.171Z,15.10
2022-10-20T13:43:05.046Z,15.20
2022-10-20T13:45:50.167Z,15.30
2022-10-20T13:48:28.497Z,15.40
2022-10-20T13:51:05.308Z,15.50
2022-10-20T13:53:40.192Z,15.60
2022-10-20T13:56:08.876Z,15.80
2022-10-20T13:58:36.102Z,15.80
2022-10-20T14:01:16.801Z,15.90
2022-10-20T14:03:46.263Z,16.00
2022-10-20T14:06:46.840Z,16.10
2022-10-20T14:09:19.124Z,16.10
2022-10-20T14:11:50.165Z,16.20
2022-10-20T14:14:22.714Z,16.30
2022-10-20T14:17:02.216Z,16.40
2022-10-20T14:19:30.739Z,16.50
2022-10-20T14:22:10.111Z,16.50
2022-10-20T14:24:45.681Z,16.60
2022-10-20T14:27:26.100Z,16.60
2022-10-20T14:29:53.979Z,16.70
2022-10-20T14:32:24.595Z,16.70
2022-10-20T14:35:14.339Z,16.80
2022-10-20T14:37:46.222Z,17.00
2022-10-20T14:40:32.806Z,17.30
2022-10-20T14:43:02.527Z,17.50
2022-10-20T14:45:30.133Z,18.00
2022-10-20T14:47:59.824Z,18.20
2022-10-20T14:50:37.549Z,17.80
2022-10-20T14:53:25.046Z,17.40
2022-10-20T14:55:52.218Z,17.20
2022-10-20T14:58:37.705Z,17.10
2022-10-20T15:01:31.686Z,17.00
2022-10-20T15:04:10.845Z,17.00
2022-10-20T15:06:38.164Z,17.00
2022-10-20T15:09:05.536Z,17.00
2022-10-20T15:11:32.909Z,17.00
2022-10-20T15:14:00.641Z,17.10
2022-10-20T15:16:41.087Z,17.10
2022-10-20T15:19:28.730Z,17.10
2022-10-20T15:22:18.809Z,17.10
2022-10-20T15:24:46.741Z,17.10
2022-10-20T15:27:16.459Z,17.10
2022-10-20T15:29:51.557Z,17.00
2022-10-20T15:32:18.876Z,17.10
2022-10-20T15:34:46.045Z,17.10
2022-10-20T15:37:13.164Z,17.10
2022-10-20T15:39:40.262Z,17.10
2022-10-20T15:42:11.270Z,17.10
2022-10-20T15:44:38.402Z,17.00
2022-10-20T15:47:05.515Z,17.10
2022-10-20T15:49:32.830Z,17.10
2022-10-20T15:52:00.009Z,17.10
2022-10-20T15:54:27.156Z,17.10
2022-10-20T15:56:54.277Z,17.10
2022-10-20T15:59:21.400Z,17.10
2022-10-20T16:01:48.503Z,17.00
2022-10-20T16:04:18.760Z,17.00
2022-10-20T16:06:46.023Z,17.00
2022-10-20T16:09:15.837Z,17.00
2022-10-20T16:11:44.153Z,17.00
2022-10-20T16:14:11.930Z,17.00
2022-10-20T16:16:39.581Z,17.00
2022-10-20T16:19:09.069Z,17.00
2022-10-20T16:21:36.628Z,17.00
2022-10-20T16:24:04.935Z,16.90
2022-10-20T16:26:32.082Z,16.90
2022-10-20T16:28:59.779Z,16.80
2022-10-20T16:31:26.895Z,16.70
2022-10-20T16:33:54.023Z,16.70
2022-10-20T16:36:21.749Z,16.70
2022-10-20T16:38:53.861Z,16.60
2022-10-20T16:41:21.006Z,16.70
2022-10-20T16:43:48.247Z,16.70
2022-10-20T16:46:16.211Z,16.60
2022-10-20T16:48:47.717Z,16.60
2022-10-20T16:51:16.403Z,16.50
2022-10-20T16:53:44.244Z,16.40
2022-10-20T16:56:15.204Z,16.30
2022-10-20T16:58:45.525Z,16.20
2022-10-20T17:01:14.278Z,16.20
2022-10-20T17:06:18.616Z,16.20
2022-10-20T17:08:46.034Z,16.20
2022-10-20T17:11:19.426Z,16.10
2022-10-20T17:13:46.761Z,16.20
2022-10-20T17:16:16.679Z,16.20
2022-10-20T17:18:44.221Z,16.10
2022-10-20T17:21:12.543Z,16.20
2022-10-20T17:23:43.055Z,16.10
2022-10-20T17:26:19.572Z,16.10
2022-10-20T17:28:47.568Z,16.10
2022-10-20T17:33:48.540Z,16.20
2022-10-20T17:36:16.197Z,16.10
2022-10-20T17:38:43.751Z,16.10
2022-10-20T17:41:13.536Z,16.10
2022-10-20T17:43:41.284Z,16.10
2022-10-20T17:46:14.072Z,16.00
2022-10-20T17:48:42.111Z,16.10
2022-10-20T17:51:16.629Z,16.00
2022-10-20T17:53:45.922Z,16.00
2022-10-20T17:56:16.072Z,15.90
2022-10-20T17:58:45.701Z,16.00
2022-10-20T18:01:17.294Z,15.90
2022-10-20T18:03:46.247Z,15.90
2022-10-20T18:06:17.764Z,15.90
2022-10-20T18:08:45.481Z,15.90
2022-10-20T18:11:15.723Z,15.90
2022-10-20T18:13:43.072Z,15.90
2022-10-20T18:16:12.559Z,16.00
2022-10-20T18:18:39.845Z,16.00
2022-10-20T18:21:08.996Z,15.90
2022-10-20T18:23:36.901Z,15.90
2022-10-20T18:26:07.889Z,16.00
2022-10-20T18:28:35.733Z,15.90
2022-10-20T18:31:11.437Z,15.90
2022-10-20T18:33:38.670Z,15.90
2022-10-20T18:36:08.361Z,15.90
2022-10-20T18:38:37.707Z,15.90
2022-10-20T18:41:15.277Z,15.90
2022-10-20T18:43:45.265Z,15.80
2022-10-20T18:46:13.737Z,15.80
2022-10-20T18:48:42.198Z,15.90
2022-10-20T18:51:11.838Z,15.90
2022-10-20T18:56:12.469Z,15.90
2022-10-20T18:58:41.059Z,16.00
2022-10-20T19:01:13.154Z,16.00
2022-10-20T19:03:41.621Z,16.00
2022-10-20T19:06:12.934Z,16.00
2022-10-20T19:08:41.089Z,16.00
2022-10-20T19:11:10.979Z,16.00
2022-10-20T19:13:38.731Z,16.00
2022-10-20T19:16:16.007Z,16.00
2022-10-20T19:18:51.313Z,16.00
2022-10-20T19:23:59.776Z,16.00
2022-10-20T19:26:30.245Z,16.00
2022-10-20T19:29:00.454Z,16.00
2022-10-20T19:31:34.410Z,16.00
2022-10-20T19:34:13.812Z,16.00
2022-10-20T19:36:41.972Z,16.10
2022-10-20T19:39:11.346Z,16.10
2022-10-20T19:41:38.529Z,16.10
2022-10-20T19:44:06.298Z,16.10
2022-10-20T19:46:34.130Z,16.10
2022-10-20T19:49:01.304Z,16.00
2022-10-20T19:51:28.530Z,16.10
2022-10-20T19:53:55.674Z,16.10
2022-10-20T19:56:22.903Z,16.10
2022-10-20T19:58:50.037Z,16.10
2022-10-20T20:01:18.016Z,15.50
2022-10-20T20:03:45.598Z,16.10
2022-10-20T20:06:18.878Z,16.20
2022-10-20T20:08:49.964Z,16.20
2022-10-20T20:11:26.270Z,16.10
2022-10-20T20:14:04.469Z,15.90
2022-10-20T20:16:31.902Z,15.80
2022-10-20T20:18:59.150Z,15.70
2022-10-20T20:21:26.842Z,15.60
2022-10-20T20:24:00.207Z,15.60
2022-10-20T20:26:30.164Z,15.60
2022-10-20T20:28:57.857Z,15.60
2022-10-20T20:31:25.667Z,17.00
2022-10-20T20:33:53.624Z,15.60
2022-10-20T20:36:21.039Z,15.50
2022-10-20T20:38:48.850Z,15.50
2022-10-20T20:41:18.504Z,15.50
2022-10-20T20:43:45.838Z,15.50
2022-10-20T20:46:15.417Z,15.50
2022-10-20T20:48:43.015Z,15.50
2022-10-20T20:51:11.275Z,15.60
2022-10-20T20:53:39.662Z,15.60
2022-10-20T20:56:09.990Z,15.60
2022-10-20T20:58:38.075Z,15.60
2022-10-20T21:01:08.054Z,15.60
2022-10-20T21:03:36.053Z,15.60
2022-10-20T21:06:15.258Z,15.60
2022-10-20T21:08:46.304Z,15.60
2022-10-20T21:11:16.951Z,15.60
2022-10-20T21:13:45.209Z,15.60
2022-10-20T21:16:16.492Z,15.50
2022-10-20T21:18:46.530Z,15.50
2022-10-20T21:21:16.604Z,15.50
2022-10-20T21:23:43.888Z,15.50
2022-10-20T21:26:13.462Z,15.50
2022-10-20T21:28:41.700Z,15.50
2022-10-20T21:31:11.651Z,15.50
2022-10-20T21:33:39.902Z,15.50
2022-10-20T21:36:15.380Z,15.50
2022-10-20T21:38:43.350Z,15.50
2022-10-20T21:41:19.729Z,15.50
2022-10-20T21:43:52.426Z,15.50
2022-10-20T21:46:32.681Z,15.50
2022-10-20T21:49:06.287Z,15.40
2022-10-20T21:51:38.975Z,15.40
2022-10-20T21:54:10.375Z,15.30
2022-10-20T21:56:41.010Z,15.30
2022-10-20T21:59:14.167Z,15.40
2022-10-20T22:01:41.287Z,15.30
2022-10-20T22:04:08.411Z,15.40
2022-10-20T22:06:36.774Z,15.40
2022-10-20T22:09:04.580Z,15.40
2022-10-20T22:11:34.585Z,15.30
2022-10-20T22:14:02.001Z,15.30
2022-10-20T22:16:33.086Z,15.30
2022-10-20T22:19:04.421Z,15.30
2022-10-20T22:21:32.379Z,15.20
2022-10-20T22:23:59.830Z,15.20
2022-10-20T22:26:28.664Z,15.20
2022-10-20T22:28:57.451Z,15.20
2022-10-20T22:31:25.543Z,15.20
2022-10-20T22:33:54.408Z,15.20
2022-10-20T22:36:22.301Z,15.20
2022-10-20T22:38:49.515Z,15.20
2022-10-20T22:41:16.866Z,15.20
2022-10-20T22:43:44.072Z,15.40
2022-10-20T22:46:11.310Z,15.20
2022-10-20T22:48:38.641Z,15.20
2022-10-20T22:51:07.870Z,15.20
2022-10-20T22:53:35.947Z,15.20
2022-10-20T22:56:10.663Z,15.20
2022-10-20T22:58:38.350Z,15.10
2022-10-20T23:01:08.072Z,15.10
2022-10-20T23:03:35.290Z,15.10
2022-10-20T23:06:12.981Z,15.10
2022-10-20T23:08:45.852Z,15.10
2022-10-20T23:11:14.748Z,15.20
2022-10-20T23:13:42.121Z,15.10
2022-10-20T23:16:09.424Z,15.10
2022-10-20T23:18:37.166Z,15.00
2022-10-20T23:21:05.326Z,15.10
2022-10-20T23:23:35.282Z,15.00
2022-10-20T23:26:04.652Z,15.10
2022-10-20T23:28:32.992Z,15.10
2022-10-20T23:31:08.213Z,15.10
2022-10-20T23:33:36.658Z,15.10
2022-10-20T23:36:04.254Z,15.10
2022-10-20T23:38:31.450Z,15.10
2022-10-20T23:40:58.655Z,15.10
2022-10-20T23:43:26.215Z,15.10
2022-10-20T23:45:53.468Z,15.10
2022-10-20T23:48:20.647Z,15.10
2022-10-20T23:50:47.974Z,15.10
2022-10-20T23:53:15.442Z,15.20
2022-10-20T23:55:43.575Z,15.10
2022-10-20T23:58:11.154Z,15.10
